sensor_id;sensor_type;location;lat;lon;timestamp;pressure;altitude;pressure_sealevel;temperature;humidity
22047;BME280;11187;49.412;20.956;2023-04-07T00:02:32;94662.00;;;-0.30;100.00
22047;BME280;11187;49.412;20.956;2023-04-07T00:05:19;94659.53;;;-0.28;100.00
22047;BME280;11187;49.412;20.956;2023-04-07T00:07:53;94659.56;;;-0.27;100.00
22047;BME280;11187;49.412;20.956;2023-04-07T00:10:46;94657.94;;;-0.25;100.00
22047;BME280;11187;49.412;20.956;2023-04-07T00:13:40;94658.75;;;-0.24;100.00
22047;BME280;11187;49.412;20.956;2023-04-07T00:16:14;94654.59;;;-0.22;100.00
22047;BME280;11187;49.412;20.956;2023-04-07T00:19:00;94658.81;;;-0.21;100.00
22047;BME280;11187;49.412;20.956;2023-04-07T00:21:34;94651.31;;;-0.18;100.00
22047;BME280;11187;49.412;20.956;2023-04-07T00:24:20;94643.78;;;-0.16;100.00
22047;BME280;11187;49.412;20.956;2023-04-07T00:27:00;94641.25;;;-0.16;100.00
22047;BME280;11187;49.412;20.956;2023-04-07T00:29:47;94638.75;;;-0.16;100.00
22047;BME280;11187;49.412;20.956;2023-04-07T00:32:21;94635.38;;;-0.17;100.00
22047;BME280;11187;49.412;20.956;2023-04-07T00:35:08;94646.28;;;-0.16;100.00
22047;BME280;11187;49.412;20.956;2023-04-07T00:37:42;94629.56;;;-0.14;100.00
22047;BME280;11187;49.412;20.956;2023-04-07T00:40:28;94615.31;;;-0.12;100.00
22047;BME280;11187;49.412;20.956;2023-04-07T00:43:02;94624.59;;;-0.11;100.00
22047;BME280;11187;49.412;20.956;2023-04-07T00:45:48;94629.63;;;-0.10;100.00
22047;BME280;11187;49.412;20.956;2023-04-07T00:48:22;94623.78;;;-0.09;100.00
22047;BME280;11187;49.412;20.956;2023-04-07T00:51:15;94631.31;;;-0.07;100.00
22047;BME280;11187;49.412;20.956;2023-04-07T00:54:09;94628.81;;;-0.07;100.00
22047;BME280;11187;49.412;20.956;2023-04-07T00:56:43;94643.06;;;-0.08;100.00
22047;BME280;11187;49.412;20.956;2023-04-07T00:59:32;94660.66;;;-0.09;100.00
22047;BME280;11187;49.412;20.956;2023-04-07T01:02:10;94669.88;;;-0.11;100.00
22047;BME280;11187;49.412;20.956;2023-04-07T01:06:19;94658.94;;;-0.12;100.00
22047;BME280;11187;49.412;20.956;2023-04-07T01:08:29;94634.66;;;-0.11;100.00
22047;BME280;11187;49.412;20.956;2023-04-07T01:11:32;94637.94;;;-0.14;100.00
22047;BME280;11187;49.412;20.956;2023-04-07T01:14:09;94639.56;;;-0.17;100.00
22047;BME280;11187;49.412;20.956;2023-04-07T01:16:56;94627.03;;;-0.16;100.00
22047;BME280;11187;49.412;20.956;2023-04-07T01:19:39;94633.78;;;-0.13;100.00
22047;BME280;11187;49.412;20.956;2023-04-07T01:22:33;94625.34;;;-0.15;100.00
22047;BME280;11187;49.412;20.956;2023-04-07T01:28:43;94628.72;;;-0.15;100.00
22047;BME280;11187;49.412;20.956;2023-04-07T01:31:39;94633.75;;;-0.15;100.00
22047;BME280;11187;49.412;20.956;2023-04-07T01:34:13;94629.56;;;-0.16;100.00
22047;BME280;11187;49.412;20.956;2023-04-07T01:37:07;94622.84;;;-0.15;100.00
22047;BME280;11187;49.412;20.956;2023-04-07T01:40:04;94626.16;;;-0.16;100.00
22047;BME280;11187;49.412;20.956;2023-04-07T01:42:39;94628.69;;;-0.16;100.00
22047;BME280;11187;49.412;20.956;2023-04-07T01:45:28;94621.94;;;-0.19;100.00
22047;BME280;11187;49.412;20.956;2023-04-07T01:48:06;94619.41;;;-0.19;100.00
22047;BME280;11187;49.412;20.956;2023-04-07T01:50:54;94617.75;;;-0.18;100.00
22047;BME280;11187;49.412;20.956;2023-04-07T01:53:31;94616.09;;;-0.18;100.00
22047;BME280;11187;49.412;20.956;2023-04-07T01:56:18;94614.41;;;-0.17;100.00
22047;BME280;11187;49.412;20.956;2023-04-07T01:58:52;94616.91;;;-0.19;100.00
22047;BME280;11187;49.412;20.956;2023-04-07T02:01:45;94621.94;;;-0.19;100.00
22047;BME280;11187;49.412;20.956;2023-04-07T02:05:00;94616.06;;;-0.19;100.00
22047;BME280;11187;49.412;20.956;2023-04-07T02:08:02;94613.56;;;-0.19;100.00
22047;BME280;11187;49.412;20.956;2023-04-07T02:10:58;94613.59;;;-0.18;100.00
22047;BME280;11187;49.412;20.956;2023-04-07T02:13:54;94607.69;;;-0.18;100.00
22047;BME280;11187;49.412;20.956;2023-04-07T02:16:29;94610.22;;;-0.17;100.00
22047;BME280;11187;49.412;20.956;2023-04-07T02:19:26;94607.72;;;-0.17;100.00
22047;BME280;11187;49.412;20.956;2023-04-07T02:22:24;94599.25;;;-0.22;100.00
22047;BME280;11187;49.412;20.956;2023-04-07T02:24:58;94608.41;;;-0.26;100.00
22047;BME280;11187;49.412;20.956;2023-04-07T02:27:44;94607.63;;;-0.23;100.00
22047;BME280;11187;49.412;20.956;2023-04-07T02:30:18;94613.50;;;-0.23;100.00
22047;BME280;11187;49.412;20.956;2023-04-07T02:33:12;94611.03;;;-0.19;100.00
22047;BME280;11187;49.412;20.956;2023-04-07T02:35:46;94605.16;;;-0.18;100.00
22047;BME280;11187;49.412;20.956;2023-04-07T02:38:39;94611.03;;;-0.19;100.00
22047;BME280;11187;49.412;20.956;2023-04-07T02:41:13;94616.06;;;-0.19;100.00
22047;BME280;11187;49.412;20.956;2023-04-07T02:44:06;94612.72;;;-0.18;100.00
22047;BME280;11187;49.412;20.956;2023-04-07T02:47:00;94618.63;;;-0.18;100.00
22047;BME280;11187;49.412;20.956;2023-04-07T02:49:34;94615.28;;;-0.15;100.00
22047;BME280;11187;49.412;20.956;2023-04-07T02:52:27;94618.63;;;-0.16;100.00
22047;BME280;11187;49.412;20.956;2023-04-07T02:55:01;94619.50;;;-0.16;100.00
22047;BME280;11187;49.412;20.956;2023-04-07T02:57:47;94617.81;;;-0.14;100.00
22047;BME280;11187;49.412;20.956;2023-04-07T03:00:21;94619.50;;;-0.14;100.00
22047;BME280;11187;49.412;20.956;2023-04-07T03:03:07;94612.78;;;-0.14;100.00
22047;BME280;11187;49.412;20.956;2023-04-07T03:05:41;94616.16;;;-0.13;100.00
22047;BME280;11187;49.412;20.956;2023-04-07T03:08:28;94613.69;;;-0.10;100.00
22047;BME280;11187;49.412;20.956;2023-04-07T03:11:02;94613.66;;;-0.13;100.00
22047;BME280;11187;49.412;20.956;2023-04-07T03:13:48;94606.97;;;-0.11;100.00
22047;BME280;11187;49.412;20.956;2023-04-07T03:16:22;94601.94;;;-0.10;100.00
22047;BME280;11187;49.412;20.956;2023-04-07T03:19:09;94594.38;;;-0.11;100.00
22047;BME280;11187;49.412;20.956;2023-04-07T03:21:43;94590.19;;;-0.11;100.00
22047;BME280;11187;49.412;20.956;2023-04-07T03:24:36;94582.66;;;-0.11;100.00
22047;BME280;11187;49.412;20.956;2023-04-07T03:27:12;94594.38;;;-0.10;100.00
22047;BME280;11187;49.412;20.956;2023-04-07T03:29:59;94587.75;;;-0.06;100.00
22047;BME280;11187;49.412;20.956;2023-04-07T03:32:33;94582.75;;;-0.03;100.00
22047;BME280;11187;49.412;20.956;2023-04-07T03:35:19;94582.72;;;-0.06;100.00
22047;BME280;11187;49.412;20.956;2023-04-07T03:37:53;94583.59;;;-0.04;100.00
22047;BME280;11187;49.412;20.956;2023-04-07T03:40:46;94584.41;;;-0.04;100.00
22047;BME280;11187;49.412;20.956;2023-04-07T03:43:20;94597.84;;;-0.03;100.00
22047;BME280;11187;49.412;20.956;2023-04-07T03:46:13;94605.41;;;-0.02;100.00
22047;BME280;11187;49.412;20.956;2023-04-07T03:48:47;94594.50;;;-0.01;100.00
22047;BME280;11187;49.412;20.956;2023-04-07T03:51:40;94596.22;;;0.02;100.00
22047;BME280;11187;49.412;20.956;2023-04-07T03:54:14;94599.59;;;0.04;100.00
22047;BME280;11187;49.412;20.956;2023-04-07T03:57:00;94598.75;;;0.01;100.00
22047;BME280;11187;49.412;20.956;2023-04-07T03:59:35;94605.47;;;0.03;100.00
22047;BME280;11187;49.412;20.956;2023-04-07T04:02:21;94608.03;;;0.06;100.00
22047;BME280;11187;49.412;20.956;2023-04-07T04:04:55;94613.91;;;0.07;100.00
22047;BME280;11187;49.412;20.956;2023-04-07T04:07:48;94608.03;;;0.06;100.00
22047;BME280;11187;49.412;20.956;2023-04-07T04:10:23;94608.88;;;0.05;100.00
22047;BME280;11187;49.412;20.956;2023-04-07T04:13:16;94608.88;;;0.05;100.00
22047;BME280;11187;49.412;20.956;2023-04-07T04:16:10;94606.34;;;0.07;100.00
22047;BME280;11187;49.412;20.956;2023-04-07T04:18:44;94609.75;;;0.07;100.00
22047;BME280;11187;49.412;20.956;2023-04-07T04:21:30;94609.72;;;0.09;100.00
22047;BME280;11187;49.412;20.956;2023-04-07T04:24:04;94609.72;;;0.09;100.00
22047;BME280;11187;49.412;20.956;2023-04-07T04:26:57;94611.44;;;0.11;100.00
22047;BME280;11187;49.412;20.956;2023-04-07T04:29:52;94618.19;;;0.12;100.00
22047;BME280;11187;49.412;20.956;2023-04-07T04:32:26;94623.25;;;0.15;100.00
22047;BME280;11187;49.412;20.956;2023-04-07T04:35:13;94619.06;;;0.14;100.00
22047;BME280;11187;49.412;20.956;2023-04-07T04:37:47;94613.19;;;0.15;100.00
22047;BME280;11187;49.412;20.956;2023-04-07T04:40:33;94624.09;;;0.14;100.00
22047;BME280;11187;49.412;20.956;2023-04-07T04:43:07;94621.59;;;0.17;100.00
22047;BME280;11187;49.412;20.956;2023-04-07T04:45:53;94629.97;;;0.15;100.00
22047;BME280;11187;49.412;20.956;2023-04-07T04:48:27;94619.06;;;0.14;100.00
22047;BME280;11187;49.412;20.956;2023-04-07T04:51:13;94624.91;;;0.13;100.00
22047;BME280;11187;49.412;20.956;2023-04-07T04:53:47;94625.78;;;0.14;100.00
22047;BME280;11187;49.412;20.956;2023-04-07T04:56:40;94629.94;;;0.12;100.00
22047;BME280;11187;49.412;20.956;2023-04-07T04:59:15;94626.56;;;0.13;100.00
22047;BME280;11187;49.412;20.956;2023-04-07T05:02:08;94635.00;;;0.15;100.00
22047;BME280;11187;49.412;20.956;2023-04-07T05:04:42;94641.78;;;0.19;100.00
22047;BME280;11187;49.412;20.956;2023-04-07T05:07:28;94645.16;;;0.21;100.00
22047;BME280;11187;49.412;20.956;2023-04-07T05:10:02;94649.34;;;0.22;100.00
22047;BME280;11187;49.412;20.956;2023-04-07T05:12:48;94647.69;;;0.21;100.00
22047;BME280;11187;49.412;20.956;2023-04-07T05:15:23;94647.75;;;0.26;100.00
22047;BME280;11187;49.412;20.956;2023-04-07T05:18:09;94656.16;;;0.28;100.00
22047;BME280;11187;49.412;20.956;2023-04-07T05:20:43;94651.13;;;0.29;100.00
22047;BME280;11187;49.412;20.956;2023-04-07T05:23:30;94642.75;;;0.32;100.00
22047;BME280;11187;49.412;20.956;2023-04-07T05:26:04;94647.00;;;0.36;100.00
22047;BME280;11187;49.412;20.956;2023-04-07T05:28:57;94638.69;;;0.40;100.00
22047;BME280;11187;49.412;20.956;2023-04-07T05:31:51;94647.97;;;0.44;100.00
22047;BME280;11187;49.412;20.956;2023-04-07T05:34:25;94653.03;;;0.47;100.00
22047;BME280;11187;49.412;20.956;2023-04-07T05:37:11;94652.19;;;0.47;100.00
22047;BME280;11187;49.412;20.956;2023-04-07T05:39:48;94647.19;;;0.48;100.00
22047;BME280;11187;49.412;20.956;2023-04-07T05:42:41;94649.75;;;0.54;100.00
22047;BME280;11187;49.412;20.956;2023-04-07T05:45:35;94638.06;;;0.58;100.00
22047;BME280;11187;49.412;20.956;2023-04-07T05:48:29;94638.97;;;0.63;100.00
22047;BME280;11187;49.412;20.956;2023-04-07T05:51:03;94633.97;;;0.68;100.00
22047;BME280;11187;49.412;20.956;2023-04-07T05:53:59;94639.94;;;0.73;100.00
22047;BME280;11187;49.412;20.956;2023-04-07T05:56:33;94627.38;;;0.77;100.00
22047;BME280;11187;49.412;20.956;2023-04-07T05:59:19;94641.66;;;0.78;100.00
22047;BME280;11187;49.412;20.956;2023-04-07T06:01:53;94646.72;;;0.81;100.00
22047;BME280;11187;49.412;20.956;2023-04-07T06:04:39;94643.44;;;0.87;100.00
22047;BME280;11187;49.412;20.956;2023-04-07T06:07:13;94652.72;;;0.93;100.00
22047;BME280;11187;49.412;20.956;2023-04-07T06:10:07;94661.22;;;0.98;100.00
22047;BME280;11187;49.412;20.956;2023-04-07T06:13:00;94659.53;;;0.98;100.00
22047;BME280;11187;49.412;20.956;2023-04-07T06:15:34;94665.38;;;0.97;100.00
22047;BME280;11187;49.412;20.956;2023-04-07T06:18:27;94661.16;;;0.95;100.00
22047;BME280;11187;49.412;20.956;2023-04-07T06:21:01;94650.28;;;0.96;100.00
22047;BME280;11187;49.412;20.956;2023-04-07T06:23:54;94651.06;;;0.95;100.00
22047;BME280;11187;49.412;20.956;2023-04-07T06:26:48;94653.66;;;0.99;100.00
22047;BME280;11187;49.412;20.956;2023-04-07T06:29:22;94657.09;;;1.06;100.00
22047;BME280;11187;49.412;20.956;2023-04-07T06:32:08;94658.75;;;1.06;100.00
22047;BME280;11187;49.412;20.956;2023-04-07T06:34:42;94664.69;;;1.11;100.00
22047;BME280;11187;49.412;20.956;2023-04-07T06:37:28;94657.16;;;1.12;100.00
22047;BME280;11187;49.412;20.956;2023-04-07T06:40:02;94663.06;;;1.16;100.00
22047;BME280;11187;49.412;20.956;2023-04-07T06:42:48;94662.28;;;1.21;100.00
22047;BME280;11187;49.412;20.956;2023-04-07T06:45:22;94669.06;;;1.27;100.00
22047;BME280;11187;49.412;20.956;2023-04-07T06:48:08;94661.50;;;1.27;100.00
22047;BME280;11187;49.412;20.956;2023-04-07T06:50:47;94657.31;;;1.29;100.00
22047;BME280;11187;49.412;20.956;2023-04-07T06:53:41;94656.50;;;1.33;100.00
22047;BME280;11187;49.412;20.956;2023-04-07T06:56:35;94655.72;;;1.37;100.00
22047;BME280;11187;49.412;20.956;2023-04-07T06:59:30;94659.97;;;1.44;100.00
22047;BME280;11187;49.412;20.956;2023-04-07T07:02:24;94650.78;;;1.48;100.00
22047;BME280;11187;49.412;20.956;2023-04-07T07:05:18;94655.88;;;1.53;100.00
22047;BME280;11187;49.412;20.956;2023-04-07T07:07:52;94661.81;;;1.61;100.00
22047;BME280;11187;49.412;20.956;2023-04-07T07:10:38;94665.22;;;1.67;100.00
22047;BME280;11187;49.412;20.956;2023-04-07T07:13:12;94666.09;;;1.71;100.00
22047;BME280;11187;49.412;20.956;2023-04-07T07:15:58;94667.00;;;1.78;100.00
22047;BME280;11187;49.412;20.956;2023-04-07T07:18:32;94666.25;;;1.90;100.00
22047;BME280;11187;49.412;20.956;2023-04-07T07:21:25;94673.06;;;2.01;100.00
22047;BME280;11187;49.412;20.956;2023-04-07T07:24:19;94673.94;;;2.05;100.00
22047;BME280;11187;49.412;20.956;2023-04-07T07:27:14;94673.97;;;2.08;100.00
22047;BME280;11187;49.412;20.956;2023-04-07T07:30:09;94673.97;;;2.08;100.00
22047;BME280;11187;49.412;20.956;2023-04-07T07:32:42;94666.38;;;2.11;100.00
22047;BME280;11187;49.412;20.956;2023-04-07T07:35:35;94668.94;;;2.09;100.00
22047;BME280;11187;49.412;20.956;2023-04-07T07:38:29;94664.72;;;2.12;100.00
22047;BME280;11187;49.412;20.956;2023-04-07T07:41:23;94665.59;;;2.15;100.00
22047;BME280;11187;49.412;20.956;2023-04-07T07:43:58;94669.81;;;2.16;100.00
22047;BME280;11187;49.412;20.956;2023-04-07T07:46:45;94672.31;;;2.15;100.00
22047;BME280;11187;49.412;20.956;2023-04-07T07:49:18;94679.09;;;2.19;100.00
22047;BME280;11187;49.412;20.956;2023-04-07T07:52:04;94673.16;;;2.14;100.00
22047;BME280;11187;49.412;20.956;2023-04-07T07:54:38;94680.69;;;2.11;100.00
22047;BME280;11187;49.412;20.956;2023-04-07T07:57:24;94682.41;;;2.12;100.00
22047;BME280;11187;49.412;20.956;2023-04-07T07:59:58;94686.59;;;2.11;100.00
22047;BME280;11187;49.412;20.956;2023-04-07T08:02:51;94692.50;;;2.12;100.00
22047;BME280;11187;49.412;20.956;2023-04-07T08:05:25;94688.25;;;2.06;100.00
22047;BME280;11187;49.412;20.956;2023-04-07T08:08:18;94690.78;;;2.04;100.00
22047;BME280;11187;49.412;20.956;2023-04-07T08:11:12;94686.63;;;2.14;100.00
22047;BME280;11187;49.412;20.956;2023-04-07T08:13:46;94681.63;;;2.22;100.00
22047;BME280;11187;49.412;20.956;2023-04-07T08:16:32;94683.34;;;2.23;100.00
22047;BME280;11187;49.412;20.956;2023-04-07T08:19:06;94679.13;;;2.25;100.00
22047;BME280;11187;49.412;20.956;2023-04-07T08:21:52;94679.16;;;2.29;100.00
22047;BME280;11187;49.412;20.956;2023-04-07T08:24:27;94677.50;;;2.38;100.00
22047;BME280;11187;49.412;20.956;2023-04-07T08:27:14;94677.56;;;2.47;100.00
22047;BME280;11187;49.412;20.956;2023-04-07T08:29:57;94673.38;;;2.49;100.00
22047;BME280;11187;49.412;20.956;2023-04-07T08:32:52;94674.22;;;2.51;100.00
22047;BME280;11187;49.412;20.956;2023-04-07T08:35:26;94672.56;;;2.53;100.00
22047;BME280;11187;49.412;20.956;2023-04-07T08:38:12;94672.56;;;2.53;100.00
22047;BME280;11187;49.412;20.956;2023-04-07T08:40:48;94671.72;;;2.56;100.00
22047;BME280;11187;49.412;20.956;2023-04-07T08:43:46;94675.06;;;2.51;100.00
22047;BME280;11187;49.412;20.956;2023-04-07T08:46:40;94679.28;;;2.51;100.00
22047;BME280;11187;49.412;20.956;2023-04-07T08:49:37;94669.19;;;2.53;100.00
22047;BME280;11187;49.412;20.956;2023-04-07T08:52:56;94670.03;;;2.53;100.00
22047;BME280;11187;49.412;20.956;2023-04-07T08:55:34;94664.97;;;2.50;100.00
22047;BME280;11187;49.412;20.956;2023-04-07T08:58:22;94672.53;;;2.51;100.00
22047;BME280;11187;49.412;20.956;2023-04-07T09:00:56;94676.75;;;2.54;100.00
22047;BME280;11187;49.412;20.956;2023-04-07T09:03:51;94680.16;;;2.55;100.00
22047;BME280;11187;49.412;20.956;2023-04-07T09:06:24;94675.13;;;2.59;100.00
22047;BME280;11187;49.412;20.956;2023-04-07T09:09:18;94677.66;;;2.65;100.00
22047;BME280;11187;49.412;20.956;2023-04-07T09:12:12;94673.44;;;2.63;100.00
22047;BME280;11187;49.412;20.956;2023-04-07T09:14:46;94681.88;;;2.62;100.00
22047;BME280;11187;49.412;20.956;2023-04-07T09:17:32;94680.19;;;2.64;100.00
22047;BME280;11187;49.412;20.956;2023-04-07T09:20:06;94674.28;;;2.65;100.00
22047;BME280;11187;49.412;20.956;2023-04-07T09:22:53;94675.16;;;2.68;100.00
22047;BME280;11187;49.412;20.956;2023-04-07T09:25:29;94676.88;;;2.76;100.00
22047;BME280;11187;49.412;20.956;2023-04-07T09:28:15;94677.69;;;2.75;100.00
22047;BME280;11187;49.412;20.956;2023-04-07T09:30:52;94676.03;;;2.75;100.00
22047;BME280;11187;49.412;20.956;2023-04-07T09:33:39;94680.25;;;2.73;100.00
22047;BME280;11187;49.412;20.956;2023-04-07T09:36:13;94678.53;;;2.72;100.00
22047;BME280;11187;49.412;20.956;2023-04-07T09:39:08;94681.91;;;2.74;100.00
22047;BME280;11187;49.412;20.956;2023-04-07T09:41:44;94677.72;;;2.78;100.00
22047;BME280;11187;49.412;20.956;2023-04-07T09:44:39;94683.59;;;2.77;100.00
22047;BME280;11187;49.412;20.956;2023-04-07T09:47:30;94689.53;;;2.77;100.00
22047;BME280;11187;49.412;20.956;2023-04-07T09:50:13;94680.22;;;2.75;100.00
22047;BME280;11187;49.412;20.956;2023-04-07T09:52:48;94687.81;;;2.73;100.00
22047;BME280;11187;49.412;20.956;2023-04-07T09:55:42;94690.34;;;2.75;100.00
22047;BME280;11187;49.412;20.956;2023-04-07T09:58:39;94683.63;;;2.75;100.00
22047;BME280;11187;49.412;20.956;2023-04-07T10:01:15;94695.38;;;2.75;100.00
22047;BME280;11187;49.412;20.956;2023-04-07T10:04:10;94688.66;;;2.70;100.00
22047;BME280;11187;49.412;20.956;2023-04-07T10:07:03;94694.56;;;2.71;100.00
22047;BME280;11187;49.412;20.956;2023-04-07T10:09:57;94702.13;;;2.69;100.00
22047;BME280;11187;49.412;20.956;2023-04-07T10:12:33;94702.94;;;2.67;100.00
22047;BME280;11187;49.412;20.956;2023-04-07T10:15:29;94697.06;;;2.66;100.00
22047;BME280;11187;49.412;20.956;2023-04-07T10:18:29;94698.72;;;2.67;100.00
22047;BME280;11187;49.412;20.956;2023-04-07T10:21:06;94693.69;;;2.67;100.00
22047;BME280;11187;49.412;20.956;2023-04-07T10:26:58;94697.06;;;2.66;100.00
22047;BME280;11187;49.412;20.956;2023-04-07T10:29:54;94697.03;;;2.68;100.00
22047;BME280;11187;49.412;20.956;2023-04-07T10:32:49;94702.97;;;2.71;100.00
22047;BME280;11187;49.412;20.956;2023-04-07T10:35:23;94692.88;;;2.73;100.00
22047;BME280;11187;49.412;20.956;2023-04-07T10:38:11;94697.13;;;2.80;100.00
22047;BME280;11187;49.412;20.956;2023-04-07T10:40:51;94708.91;;;2.81;100.00
22047;BME280;11187;49.412;20.956;2023-04-07T10:43:44;94719.91;;;2.85;100.00
22047;BME280;11187;49.412;20.956;2023-04-07T10:46:18;94723.25;;;2.81;100.00
22047;BME280;11187;49.412;20.956;2023-04-07T10:49:12;94730.81;;;2.79;100.00
22047;BME280;11187;49.412;20.956;2023-04-07T10:52:27;94729.97;;;2.76;100.00
22047;BME280;11187;49.412;20.956;2023-04-07T10:55:35;94732.47;;;2.72;100.00
22047;BME280;11187;49.412;20.956;2023-04-07T10:58:32;94730.78;;;2.73;100.00
22047;BME280;11187;49.412;20.956;2023-04-07T11:01:26;94735.00;;;2.74;100.00
22047;BME280;11187;49.412;20.956;2023-04-07T11:04:20;94736.69;;;2.77;100.00
22047;BME280;11187;49.412;20.956;2023-04-07T11:06:54;94745.09;;;2.74;100.00
22047;BME280;11187;49.412;20.956;2023-04-07T11:09:40;94741.75;;;2.75;100.00
22047;BME280;11187;49.412;20.956;2023-04-07T11:12:23;94749.34;;;2.77;100.00
22047;BME280;11187;49.412;20.956;2023-04-07T11:15:21;94745.13;;;2.79;100.00
22047;BME280;11187;49.412;20.956;2023-04-07T11:18:20;94749.34;;;2.81;100.00
22047;BME280;11187;49.412;20.956;2023-04-07T11:21:17;94746.88;;;2.89;100.00
22047;BME280;11187;49.412;20.956;2023-04-07T11:23:51;94753.63;;;2.91;100.00
22047;BME280;11187;49.412;20.956;2023-04-07T11:26:41;94749.44;;;2.95;100.00
22047;BME280;11187;49.412;20.956;2023-04-07T11:29:16;94746.06;;;2.96;100.00
22047;BME280;11187;49.412;20.956;2023-04-07T11:32:03;94748.59;;;2.96;100.00
22047;BME280;11187;49.412;20.956;2023-04-07T11:34:37;94747.78;;;3.00;100.00
22047;BME280;11187;49.412;20.956;2023-04-07T11:37:30;94748.63;;;3.04;100.00
22047;BME280;11187;49.412;20.956;2023-04-07T11:40:35;94746.13;;;3.07;100.00
22047;BME280;11187;49.412;20.956;2023-04-07T11:43:21;94750.34;;;3.08;100.00
22047;BME280;11187;49.412;20.956;2023-04-07T11:46:17;94748.66;;;3.10;100.00
22047;BME280;11187;49.412;20.956;2023-04-07T11:49:12;94749.50;;;3.10;100.00
22047;BME280;11187;49.412;20.956;2023-04-07T11:52:06;94752.03;;;3.10;100.00
22047;BME280;11187;49.412;20.956;2023-04-07T11:54:45;94747.81;;;3.12;100.00
22047;BME280;11187;49.412;20.956;2023-04-07T11:57:31;94746.16;;;3.19;100.00
22047;BME280;11187;49.412;20.956;2023-04-07T12:00:10;94747.88;;;3.26;100.00
22047;BME280;11187;49.412;20.956;2023-04-07T12:03:08;94752.13;;;3.35;100.00
22047;BME280;11187;49.412;20.956;2023-04-07T12:05:43;94748.75;;;3.36;100.00
22047;BME280;11187;49.412;20.956;2023-04-07T12:08:41;94756.38;;;3.39;100.00
22047;BME280;11187;49.412;20.956;2023-04-07T12:11:15;94756.38;;;3.39;100.00
22047;BME280;11187;49.412;20.956;2023-04-07T12:14:02;94757.22;;;3.37;100.00
22047;BME280;11187;49.412;20.956;2023-04-07T12:16:38;94757.22;;;3.40;100.00
22047;BME280;11187;49.412;20.956;2023-04-07T12:19:25;94751.34;;;3.45;100.00
22047;BME280;11187;49.412;20.956;2023-04-07T12:22:00;94752.19;;;3.49;100.00
22047;BME280;11187;49.412;20.956;2023-04-07T12:24:53;94749.66;;;3.49;100.00
22047;BME280;11187;49.412;20.956;2023-04-07T12:27:47;94757.22;;;3.52;100.00
22047;BME280;11187;49.412;20.956;2023-04-07T12:30:21;94760.66;;;3.57;100.00
22047;BME280;11187;49.412;20.956;2023-04-07T12:33:14;94758.97;;;3.64;100.00
22047;BME280;11187;49.412;20.956;2023-04-07T12:35:48;94750.53;;;3.68;100.00
22047;BME280;11187;49.412;20.956;2023-04-07T12:38:41;94751.38;;;3.70;100.00
22047;BME280;11187;49.412;20.956;2023-04-07T12:41:35;94761.53;;;3.73;100.00
22047;BME280;11187;49.412;20.956;2023-04-07T12:44:30;94752.25;;;3.75;100.00
22047;BME280;11187;49.412;20.956;2023-04-07T12:47:24;94764.06;;;3.73;100.00
22047;BME280;11187;49.412;20.956;2023-04-07T12:50:19;94764.88;;;3.72;100.00
22047;BME280;11187;49.412;20.956;2023-04-07T12:52:53;94764.06;;;3.76;100.00
22047;BME280;11187;49.412;20.956;2023-04-07T12:55:42;94767.44;;;3.75;100.00
22047;BME280;11187;49.412;20.956;2023-04-07T12:58:16;94771.63;;;3.74;100.00
22047;BME280;11187;49.412;20.956;2023-04-07T13:01:02;94767.44;;;3.66;100.00
22047;BME280;11187;49.412;20.956;2023-04-07T13:03:36;94771.63;;;3.64;100.00
22047;BME280;11187;49.412;20.956;2023-04-07T13:06:22;94770.75;;;3.59;100.00
22047;BME280;11187;49.412;20.956;2023-04-07T13:08:56;94771.59;;;3.56;100.00
22047;BME280;11187;49.412;20.956;2023-04-07T13:11:50;94766.53;;;3.56;100.00
22047;BME280;11187;49.412;20.956;2023-04-07T13:14:44;94769.91;;;3.55;100.00
22047;BME280;11187;49.412;20.956;2023-04-07T13:17:25;94777.47;;;3.52;100.00
22047;BME280;11187;49.412;20.956;2023-04-07T13:20:21;94780.88;;;3.48;100.00
22047;BME280;11187;49.412;20.956;2023-04-07T13:22:55;94774.94;;;3.46;100.00
22047;BME280;11187;49.412;20.956;2023-04-07T13:25:48;94779.19;;;3.50;100.00
22047;BME280;11187;49.412;20.956;2023-04-07T13:28:22;94777.50;;;3.50;100.00
22047;BME280;11187;49.412;20.956;2023-04-07T13:31:08;94789.31;;;3.54;100.00
22047;BME280;11187;49.412;20.956;2023-04-07T13:33:43;94784.25;;;3.54;100.00
22047;BME280;11187;49.412;20.956;2023-04-07T13:36:30;94784.25;;;3.53;100.00
22047;BME280;11187;49.412;20.956;2023-04-07T13:39:04;94791.00;;;3.54;100.00
22047;BME280;11187;49.412;20.956;2023-04-07T13:41:51;94792.69;;;3.55;100.00
22047;BME280;11187;49.412;20.956;2023-04-07T13:44:26;94787.63;;;3.55;100.00
22047;BME280;11187;49.412;20.956;2023-04-07T13:47:13;94797.75;;;3.55;100.00
22047;BME280;11187;49.412;20.956;2023-04-07T13:49:51;94799.44;;;3.54;100.00
22047;BME280;11187;49.412;20.956;2023-04-07T13:52:45;94793.50;;;3.45;100.00
22047;BME280;11187;49.412;20.956;2023-04-07T13:55:18;94796.03;;;3.39;100.00
22047;BME280;11187;49.412;20.956;2023-04-07T13:58:04;94801.06;;;3.39;100.00
22047;BME280;11187;49.412;20.956;2023-04-07T14:00:38;94796.88;;;3.41;100.00
22047;BME280;11187;49.412;20.956;2023-04-07T14:03:18;94802.75;;;3.37;100.00
22047;BME280;11187;49.412;20.956;2023-04-07T14:05:57;94804.41;;;3.30;100.00
22047;BME280;11187;49.412;20.956;2023-04-07T14:08:33;94800.19;;;3.30;100.00
22047;BME280;11187;49.412;20.956;2023-04-07T14:11:20;94804.41;;;3.28;100.00
22047;BME280;11187;49.412;20.956;2023-04-07T14:13:54;94803.56;;;3.28;100.00
22047;BME280;11187;49.412;20.956;2023-04-07T14:16:47;94806.91;;;3.28;100.00
22047;BME280;11187;49.412;20.956;2023-04-07T14:19:24;94809.38;;;3.13;100.00
22047;BME280;11187;49.412;20.956;2023-04-07T14:22:18;94810.16;;;3.04;100.00
22047;BME280;11187;49.412;20.956;2023-04-07T14:25:12;94805.94;;;3.02;100.00
22047;BME280;11187;49.412;20.956;2023-04-07T14:27:46;94805.94;;;2.99;100.00